Time;durP1;ratioP1;P1;durP2;ratioP2;P2;SDS_P1;SDS_P2;PMS_P1;PMS_P2;Temp;Humidity;BMP_temperature;BMP_pressure;BME280_temperature;BME280_humidity;BME280_pressure;Samples;Min_cycle;Max_cycle;Signal;HPM_P1;HPM_P2
2023/09/11 00:00:03;;;;;;;;;;;21.40;99.90;;;;;;5110487;28;19965;-74
2023/09/11 00:02:29;;;;;;;;;;;21.40;99.90;;;;;;5110502;28;19920;-73
2023/09/11 00:04:54;;;;;;;;;;;21.30;99.90;;;;;;5109564;28;19931;-73
2023/09/11 00:07:20;;;;;;;;;;;21.30;99.90;;;;;;5109973;27;20262;-73
2023/09/11 00:09:45;;;;;;;;;;;21.30;99.90;;;;;;5091437;28;19919;-73
2023/09/11 00:12:11;;;;;;;;;;;21.30;99.90;;;;;;5109926;28;19925;-74
2023/09/11 00:14:37;;;;;;;;;;;21.20;99.90;;;;;;5110434;28;19927;-74
2023/09/11 00:17:02;;;;;;;;;;;21.20;99.90;;;;;;5110322;28;19932;-74
2023/09/11 00:19:28;;;;;;;;;;;21.20;99.90;;;;;;5110244;28;19924;-74
2023/09/11 00:21:53;;;;;;;;;;;21.20;99.90;;;;;;5110246;28;19972;-74
2023/09/11 00:24:19;;;;;;;;;;;21.10;99.90;;;;;;5109739;28;20297;-74
2023/09/11 00:26:44;;;;;;;;;;;21.10;99.90;;;;;;5109894;28;19926;-74
2023/09/11 00:29:10;;;;;;;;;;;21.10;99.90;;;;;;5109972;28;19923;-73
2023/09/11 00:31:35;;;;;;;;;;;21.10;99.90;;;;;;5114117;27;19931;-74
2023/09/11 00:34:01;;;;;;;;;;;21.10;99.90;;;;;;5114087;27;20285;-74
2023/09/11 00:36:26;;;;;;;;;;;21.10;99.90;;;;;;5095761;28;19927;-74
2023/09/11 00:38:52;;;;;;;;;;;21.00;99.90;;;;;;5096107;28;19962;-74
2023/09/11 00:41:17;;;;;;;;;;;21.00;99.90;;;;;;5114728;27;20542;-74
2023/09/11 00:43:43;;;;;;;;;;;21.00;99.90;;;;;;5114064;28;19988;-74
2023/09/11 00:46:09;;;;;;;;;;;21.00;99.90;;;;;;5115398;27;20007;-74
2023/09/11 00:48:34;;;;;;;;;;;20.90;99.90;;;;;;5114077;28;19994;-74
2023/09/11 00:51:00;;;;;;;;;;;20.90;99.90;;;;;;5115304;27;19963;-74
2023/09/11 00:53:26;;;;;;;;;;;20.90;99.90;;;;;;5115234;27;20010;-74
2023/09/11 00:55:52;;;;;;;;;;;20.90;99.90;;;;;;5116667;27;19927;-73
2023/09/11 00:58:18;;;;;;;;;;;20.90;99.90;;;;;;5095180;28;19928;-73
2023/09/11 01:00:44;;;;;;;;;;;20.80;99.90;;;;;;5095045;27;19984;-74
2023/09/11 01:03:11;;;;;;;;;;;20.80;99.90;;;;;;5113140;27;19964;-74
2023/09/11 01:05:37;;;;;;;;;;;20.80;99.90;;;;;;5113230;28;19970;-74
2023/09/11 01:08:03;;;;;;;;;;;20.80;99.90;;;;;;5113836;27;19976;-74
2023/09/11 01:10:29;;;;;;;;;;;20.70;99.90;;;;;;5078709;27;20406;-74
2023/09/11 01:12:55;;;;;;;;;;;20.80;99.90;;;;;;5113452;27;19985;-74
2023/09/11 01:15:20;;;;;;;;;;;20.70;99.90;;;;;;5113415;27;19950;-74
2023/09/11 01:17:57;;;;;;;;;;;20.70;99.90;;;;;;5113602;27;19924;-74
2023/09/11 01:20:41;;;;;;;;;;;20.80;99.90;;;;;;5113630;27;19973;-74
2023/09/11 01:23:22;;;;;;;;;;;20.70;99.90;;;;;;5114446;27;20455;-74
2023/09/11 01:26:05;;;;;;;;;;;20.70;99.90;;;;;;5113585;27;19922;-74
2023/09/11 01:28:37;;;;;;;;;;;20.70;99.90;;;;;;5096172;28;20003;-74
2023/09/11 01:31:03;;;;;;;;;;;20.70;99.90;;;;;;5114345;27;19923;-74
2023/09/11 01:33:28;;;;;;;;;;;20.70;99.90;;;;;;5113260;27;21082;-75
2023/09/11 01:35:54;;;;;;;;;;;20.70;99.90;;;;;;5112903;27;19919;-74
2023/09/11 01:38:19;;;;;;;;;;;20.60;99.90;;;;;;5101163;27;19927;-74
2023/09/11 01:40:46;;;;;;;;;;;20.70;99.90;;;;;;5113959;27;19926;-74
2023/09/11 01:43:13;;;;;;;;;;;20.70;99.90;;;;;;5113588;27;19919;-74
2023/09/11 01:45:39;;;;;;;;;;;20.70;99.90;;;;;;5112969;27;19920;-74
2023/09/11 01:48:06;;;;;;;;;;;20.70;99.90;;;;;;5112657;27;20361;-74
2023/09/11 01:50:33;;;;;;;;;;;20.60;99.90;;;;;;5112717;28;19919;-74
2023/09/11 01:52:59;;;;;;;;;;;20.60;1.00;;;;;;5112075;28;19920;-74
2023/09/11 01:55:24;;;;;;;;;;;20.60;1.00;;;;;;5106300;28;20377;-74
2023/09/11 01:57:50;;;;;;;;;;;20.50;1.00;;;;;;5114890;27;19944;-74
2023/09/11 02:00:15;;;;;;;;;;;20.50;1.00;;;;;;5115785;27;19926;-74
2023/09/11 02:02:41;;;;;;;;;;;20.50;1.00;;;;;;5115921;27;19920;-74
2023/09/11 02:05:07;;;;;;;;;;;20.50;1.00;;;;;;5114780;27;19964;-75
2023/09/11 02:07:32;;;;;;;;;;;20.50;1.00;;;;;;5115508;27;20389;-75
2023/09/11 02:09:58;;;;;;;;;;;20.40;1.00;;;;;;5111925;28;19927;-74
2023/09/11 02:12:23;;;;;;;;;;;20.40;1.00;;;;;;5115169;27;19919;-74
2023/09/11 02:14:49;;;;;;;;;;;20.40;1.00;;;;;;5111712;28;19927;-74
2023/09/11 02:17:14;;;;;;;;;;;20.40;1.00;;;;;;5117978;27;20345;-74
2023/09/11 02:19:40;;;;;;;;;;;20.40;1.00;;;;;;5118530;27;19920;-74
2023/09/11 02:22:05;;;;;;;;;;;20.40;1.00;;;;;;5080614;28;19920;-74
2023/09/11 02:24:31;;;;;;;;;;;20.40;1.00;;;;;;5116247;27;19919;-74
2023/09/11 02:26:58;;;;;;;;;;;20.30;1.00;;;;;;5111989;28;20012;-74
2023/09/11 02:29:23;;;;;;;;;;;20.30;1.00;;;;;;5111684;28;19971;-74
2023/09/11 02:31:49;;;;;;;;;;;20.30;1.00;;;;;;5111480;28;19988;-75
2023/09/11 02:34:14;;;;;;;;;;;20.30;1.00;;;;;;5093404;28;19920;-74
2023/09/11 02:36:40;;;;;;;;;;;20.30;1.00;;;;;;5111853;28;19919;-74
2023/09/11 02:39:05;;;;;;;;;;;20.20;1.00;;;;;;5110972;28;19920;-74
2023/09/11 02:41:31;;;;;;;;;;;20.30;1.00;;;;;;5111430;28;19930;-74
2023/09/11 02:43:56;;;;;;;;;;;20.20;1.00;;;;;;5114873;27;19926;-74
2023/09/11 02:46:22;;;;;;;;;;;20.20;1.00;;;;;;5115869;27;20006;-74
2023/09/11 02:48:47;;;;;;;;;;;20.10;1.00;;;;;;5116253;27;20008;-74
2023/09/11 02:51:13;;;;;;;;;;;20.20;1.00;;;;;;5111631;27;20093;-74
2023/09/11 02:53:39;;;;;;;;;;;20.10;1.00;;;;;;5116403;27;19926;-74
2023/09/11 02:56:05;;;;;;;;;;;20.10;1.00;;;;;;5113997;27;19919;-74
2023/09/11 02:58:30;;;;;;;;;;;20.10;1.00;;;;;;5116161;27;19943;-74
2023/09/11 03:01:03;;;;;;;;;;;20.10;1.00;;;;;;5102444;27;19973;-74
2023/09/11 03:03:29;;;;;;;;;;;20.10;1.00;;;;;;5081628;27;19928;-74
2023/09/11 03:05:56;;;;;;;;;;;20.10;1.00;;;;;;5114158;27;19959;-75
2023/09/11 03:08:22;;;;;;;;;;;20.10;1.00;;;;;;5092150;28;20472;-75
2023/09/11 03:10:47;;;;;;;;;;;20.00;1.00;;;;;;5111198;27;20035;-74
2023/09/11 03:13:13;;;;;;;;;;;20.00;1.00;;;;;;5111202;28;19998;-74
2023/09/11 03:15:38;;;;;;;;;;;20.00;1.00;;;;;;5111277;28;19926;-75
2023/09/11 03:18:04;;;;;;;;;;;20.00;1.00;;;;;;5111229;27;20348;-74
2023/09/11 03:20:29;;;;;;;;;;;20.00;1.00;;;;;;5110425;27;20346;-74
2023/09/11 03:22:55;;;;;;;;;;;19.90;1.00;;;;;;5111029;27;19920;-75
2023/09/11 03:25:20;;;;;;;;;;;19.90;1.00;;;;;;5092751;28;19919;-74
2023/09/11 03:27:46;;;;;;;;;;;19.90;1.00;;;;;;5092420;28;19920;-74
2023/09/11 03:30:11;;;;;;;;;;;19.90;1.00;;;;;;5091894;28;19966;-74
2023/09/11 03:32:37;;;;;;;;;;;19.90;1.00;;;;;;5110587;27;20016;-74
2023/09/11 03:35:03;;;;;;;;;;;19.90;1.00;;;;;;5114441;27;19973;-74
2023/09/11 03:37:28;;;;;;;;;;;19.80;1.00;;;;;;5114227;27;19923;-74
2023/09/11 03:39:55;;;;;;;;;;;19.80;1.00;;;;;;5114337;27;20418;-74
2023/09/11 03:42:21;;;;;;;;;;;19.80;1.00;;;;;;5109906;28;19926;-74
2023/09/11 03:44:47;;;;;;;;;;;19.80;1.00;;;;;;5109601;28;19923;-74
2023/09/11 03:47:12;;;;;;;;;;;19.80;1.00;;;;;;5092353;28;19977;-74
2023/09/11 03:49:38;;;;;;;;;;;19.80;1.00;;;;;;5109817;28;19928;-74
2023/09/11 03:52:03;;;;;;;;;;;19.70;1.00;;;;;;5090775;28;19920;-74
2023/09/11 03:54:29;;;;;;;;;;;19.70;1.00;;;;;;5110367;27;19920;-74
2023/09/11 03:56:54;;;;;;;;;;;19.70;1.00;;;;;;5109853;28;20397;-74
2023/09/11 03:59:20;;;;;;;;;;;19.70;1.00;;;;;;5109692;28;20408;-74
2023/09/11 04:01:45;;;;;;;;;;;19.70;1.00;;;;;;5109743;28;19920;-74
2023/09/11 04:04:11;;;;;;;;;;;19.70;1.00;;;;;;5112934;28;20293;-74
2023/09/11 04:06:36;;;;;;;;;;;19.70;1.00;;;;;;5112347;27;19919;-74
2023/09/11 04:09:03;;;;;;;;;;;19.60;1.00;;;;;;5116441;28;19927;-74
2023/09/11 04:11:29;;;;;;;;;;;19.60;1.00;;;;;;5112898;28;19922;-74
2023/09/11 04:13:55;;;;;;;;;;;19.60;1.00;;;;;;5112754;28;19965;-74
2023/09/11 04:16:21;;;;;;;;;;;19.60;1.00;;;;;;5112642;28;19920;-74
2023/09/11 04:18:47;;;;;;;;;;;19.50;1.00;;;;;;5109060;28;19926;-74
2023/09/11 04:21:12;;;;;;;;;;;19.50;1.00;;;;;;5112423;28;19919;-75
2023/09/11 04:23:38;;;;;;;;;;;19.50;1.00;;;;;;5113502;28;19927;-75
2023/09/11 04:26:03;;;;;;;;;;;19.50;1.00;;;;;;5088679;28;19981;-74
2023/09/11 04:28:29;;;;;;;;;;;19.50;1.00;;;;;;5112283;28;19928;-75
2023/09/11 04:30:54;;;;;;;;;;;19.50;1.00;;;;;;5113211;28;20340;-74
2023/09/11 04:33:20;;;;;;;;;;;19.40;1.00;;;;;;5112537;28;19928;-74
2023/09/11 04:35:46;;;;;;;;;;;19.40;1.00;;;;;;5113806;28;19919;-74
2023/09/11 04:38:11;;;;;;;;;;;19.40;1.00;;;;;;5113858;28;19919;-74
2023/09/11 04:40:38;;;;;;;;;;;19.40;1.00;;;;;;5109286;28;19923;-74
2023/09/11 04:43:04;;;;;;;;;;;19.40;1.00;;;;;;5117772;28;19919;-74
2023/09/11 04:45:29;;;;;;;;;;;19.40;1.00;;;;;;5109460;28;19920;-75
2023/09/11 04:47:55;;;;;;;;;;;19.40;1.00;;;;;;5113188;28;19974;-74
2023/09/11 04:50:20;;;;;;;;;;;19.40;1.00;;;;;;5109448;28;19970;-75
2023/09/11 04:52:46;;;;;;;;;;;19.40;1.00;;;;;;5113844;28;20100;-74
2023/09/11 04:55:12;;;;;;;;;;;19.40;1.00;;;;;;5090763;28;20415;-74
2023/09/11 04:57:38;;;;;;;;;;;19.40;1.00;;;;;;5121104;28;19926;-75
2023/09/11 05:00:09;;;;;;;;;;;19.40;1.00;;;;;;5097339;28;19927;-74
2023/09/11 05:02:35;;;;;;;;;;;19.40;1.00;;;;;;5103613;28;19920;-74
2023/09/11 05:05:00;;;;;;;;;;;19.40;1.00;;;;;;5090427;28;19924;-74
2023/09/11 05:07:26;;;;;;;;;;;19.40;1.00;;;;;;5109636;28;19920;-75
2023/09/11 05:09:51;;;;;;;;;;;19.40;1.00;;;;;;5108885;28;20400;-74
2023/09/11 05:12:17;;;;;;;;;;;19.40;1.00;;;;;;5115914;28;19931;-74
2023/09/11 05:14:42;;;;;;;;;;;19.40;1.00;;;;;;5112856;28;19977;-74
2023/09/11 05:17:08;;;;;;;;;;;19.50;1.00;;;;;;5110078;28;20113;-74
2023/09/11 05:19:33;;;;;;;;;;;19.50;1.00;;;;;;5094577;28;19919;-74
2023/09/11 05:21:59;;;;;;;;;;;19.50;1.00;;;;;;5106047;27;19931;-74
2023/09/11 05:24:24;;;;;;;;;;;19.50;1.00;;;;;;5113144;28;19920;-75
2023/09/11 05:26:50;;;;;;;;;;;19.50;1.00;;;;;;5115977;27;19920;-75
2023/09/11 05:29:16;;;;;;;;;;;19.50;1.00;;;;;;5077804;28;20324;-75
2023/09/11 05:31:41;;;;;;;;;;;19.50;1.00;;;;;;5089832;28;19920;-74
2023/09/11 05:34:07;;;;;;;;;;;19.50;1.00;;;;;;5112391;28;19920;-74
2023/09/11 05:36:32;;;;;;;;;;;19.50;1.00;;;;;;5116270;27;19923;-74
2023/09/11 05:38:58;;;;;;;;;;;19.50;1.00;;;;;;5116477;27;19919;-74
2023/09/11 05:41:25;;;;;;;;;;;19.60;1.00;;;;;;5120113;27;19955;-74
2023/09/11 05:43:51;;;;;;;;;;;19.60;1.00;;;;;;5097833;28;19919;-74
2023/09/11 05:46:17;;;;;;;;;;;19.60;1.00;;;;;;5119294;27;19959;-73
2023/09/11 05:48:42;;;;;;;;;;;19.70;1.00;;;;;;5097231;28;19974;-74
2023/09/11 05:51:08;;;;;;;;;;;19.70;1.00;;;;;;5111491;28;20001;-74
2023/09/11 05:53:34;;;;;;;;;;;19.70;1.00;;;;;;5116805;27;19927;-74
2023/09/11 05:56:00;;;;;;;;;;;19.70;1.00;;;;;;5118924;27;19926;-74
2023/09/11 05:58:26;;;;;;;;;;;19.80;1.00;;;;;;5110444;27;19920;-74
2023/09/11 06:00:53;;;;;;;;;;;19.80;1.00;;;;;;5115238;27;19979;-74
2023/09/11 06:03:18;;;;;;;;;;;19.80;1.00;;;;;;5114798;27;19923;-74
2023/09/11 06:05:44;;;;;;;;;;;19.90;1.00;;;;;;5115171;27;19927;-74
2023/09/11 06:08:11;;;;;;;;;;;19.90;1.00;;;;;;5112016;28;19923;-73
2023/09/11 06:10:36;;;;;;;;;;;19.90;1.00;;;;;;5114538;27;19919;-74
2023/09/11 06:13:02;;;;;;;;;;;20.00;1.00;;;;;;5111663;28;20477;-74
2023/09/11 06:15:29;;;;;;;;;;;20.00;1.00;;;;;;5118735;27;20270;-74
2023/09/11 06:17:55;;;;;;;;;;;20.10;1.00;;;;;;5115689;27;19923;-74
2023/09/11 06:20:21;;;;;;;;;;;20.10;1.00;;;;;;5094135;28;19973;-74
2023/09/11 06:22:47;;;;;;;;;;;20.20;1.00;;;;;;5077604;28;19923;-74
2023/09/11 06:25:12;;;;;;;;;;;20.20;1.00;;;;;;5111719;28;19927;-74
2023/09/11 06:27:38;;;;;;;;;;;20.20;1.00;;;;;;5112522;27;20421;-74
2023/09/11 06:30:05;;;;;;;;;;;20.30;1.00;;;;;;5112365;27;19927;-74
2023/09/11 06:32:31;;;;;;;;;;;20.40;1.00;;;;;;5093982;27;19974;-74
2023/09/11 06:34:57;;;;;;;;;;;20.40;1.00;;;;;;5113245;27;19920;-74
2023/09/11 06:37:23;;;;;;;;;;;20.40;1.00;;;;;;5111354;28;19961;-74
2023/09/11 06:39:50;;;;;;;;;;;20.40;1.00;;;;;;5112967;27;20007;-74
2023/09/11 06:42:22;;;;;;;;;;;20.50;1.00;;;;;;5113884;27;19920;-74
2023/09/11 06:44:49;;;;;;;;;;;20.50;1.00;;;;;;5108655;27;19928;-73
2023/09/11 06:47:15;;;;;;;;;;;20.50;1.00;;;;;;5112708;27;19969;-73
2023/09/11 06:49:40;;;;;;;;;;;20.60;1.00;;;;;;5112570;27;19919;-73
2023/09/11 06:52:06;;;;;;;;;;;20.60;1.00;;;;;;5114187;27;19927;-74
2023/09/11 06:54:31;;;;;;;;;;;20.60;1.00;;;;;;5093790;28;20707;-74
2023/09/11 06:56:57;;;;;;;;;;;20.60;1.00;;;;;;5112027;27;19932;-74
2023/09/11 06:59:22;;;;;;;;;;;20.70;1.00;;;;;;5093480;28;19920;-74
2023/09/11 07:01:48;;;;;;;;;;;20.70;1.00;;;;;;5112750;27;19961;-74
2023/09/11 07:04:14;;;;;;;;;;;20.80;1.00;;;;;;5111563;27;20571;-74
2023/09/11 07:06:39;;;;;;;;;;;20.80;1.00;;;;;;5110972;27;19920;-74
2023/09/11 07:09:08;;;;;;;;;;;20.90;1.00;;;;;;5112125;27;19919;-75
2023/09/11 07:11:34;;;;;;;;;;;20.90;1.00;;;;;;5096306;28;20504;-75
2023/09/11 07:14:00;;;;;;;;;;;21.00;1.00;;;;;;5111072;28;19923;-74
2023/09/11 07:16:25;;;;;;;;;;;21.10;1.00;;;;;;5106820;28;20006;-74
2023/09/11 07:18:51;;;;;;;;;;;21.20;1.00;;;;;;5113337;27;19926;-73
2023/09/11 07:21:17;;;;;;;;;;;21.30;1.00;;;;;;5110369;28;19919;-74
2023/09/11 07:23:42;;;;;;;;;;;21.30;1.00;;;;;;5110514;28;19959;-73
2023/09/11 07:26:08;;;;;;;;;;;21.40;1.00;;;;;;5111296;27;20010;-74
2023/09/11 07:28:51;;;;;;;;;;;21.50;1.00;;;;;;5111352;27;20413;-74
2023/09/11 07:31:17;;;;;;;;;;;21.60;1.00;;;;;;5111384;27;19927;-74
2023/09/11 07:33:42;;;;;;;;;;;21.70;1.00;;;;;;5110385;28;19923;-74
2023/09/11 07:36:08;;;;;;;;;;;21.80;1.00;;;;;;5113380;27;20335;-73
2023/09/11 07:38:33;;;;;;;;;;;21.90;1.00;;;;;;5116228;27;19969;-73
2023/09/11 07:40:59;;;;;;;;;;;22.00;1.00;;;;;;5113028;27;19975;-73
2023/09/11 07:43:24;;;;;;;;;;;22.10;1.00;;;;;;5110070;28;19919;-74
2023/09/11 07:45:50;;;;;;;;;;;22.20;1.00;;;;;;5117903;27;19919;-73
2023/09/11 07:48:15;;;;;;;;;;;22.30;1.00;;;;;;5110680;28;20286;-73
2023/09/11 07:50:41;;;;;;;;;;;22.40;1.00;;;;;;5117259;27;19919;-73
2023/09/11 07:53:06;;;;;;;;;;;22.50;1.00;;;;;;5078837;28;19968;-73
2023/09/11 07:55:35;;;;;;;;;;;22.60;1.00;;;;;;5112683;27;19934;-73
2023/09/11 07:58:01;;;;;;;;;;;22.70;1.00;;;;;;5113609;27;19919;-73
2023/09/11 08:00:30;;;;;;;;;;;22.80;99.90;;;;;;5113699;27;21583;-73
2023/09/11 08:02:56;;;;;;;;;;;22.90;99.90;;;;;;5112785;28;19924;-74
2023/09/11 08:05:22;;;;;;;;;;;23.00;99.90;;;;;;5110288;28;19923;-73
2023/09/11 08:07:47;;;;;;;;;;;23.10;99.90;;;;;;5108343;28;19931;-74
2023/09/11 08:10:14;;;;;;;;;;;23.20;99.90;;;;;;5113151;27;19924;-74
2023/09/11 08:12:39;;;;;;;;;;;23.30;99.90;;;;;;5110729;28;19928;-73
2023/09/11 08:15:05;;;;;;;;;;;23.40;99.90;;;;;;5116001;28;19930;-74
2023/09/11 08:17:31;;;;;;;;;;;23.50;99.90;;;;;;5115126;28;19923;-73
2023/09/11 08:19:57;;;;;;;;;;;23.60;99.90;;;;;;5115018;28;19966;-73
2023/09/11 08:22:22;;;;;;;;;;;23.70;99.90;;;;;;5097035;28;19927;-74
2023/09/11 08:24:48;;;;;;;;;;;23.90;99.90;;;;;;5119285;28;19949;-73
2023/09/11 08:27:13;;;;;;;;;;;23.90;99.90;;;;;;5111554;28;20421;-74
2023/09/11 08:29:39;;;;;;;;;;;24.00;99.90;;;;;;5090975;28;19924;-73
2023/09/11 08:32:04;;;;;;;;;;;24.10;99.90;;;;;;5110011;28;19971;-74
2023/09/11 08:34:30;;;;;;;;;;;24.20;99.90;;;;;;5115583;28;20351;-74
2023/09/11 08:36:57;;;;;;;;;;;24.30;99.90;;;;;;5116454;28;19951;-73
2023/09/11 08:39:23;;;;;;;;;;;24.40;99.90;;;;;;5109497;28;20380;-74
2023/09/11 08:41:50;;;;;;;;;;;24.50;99.90;;;;;;5109620;28;19963;-74
2023/09/11 08:44:15;;;;;;;;;;;24.60;99.90;;;;;;5117308;28;19930;-73
2023/09/11 08:46:45;;;;;;;;;;;24.70;99.90;;;;;;5109891;28;20371;-74
2023/09/11 08:49:11;;;;;;;;;;;24.90;49.90;;;;;;5092490;28;19928;-74
2023/09/11 08:51:46;;;;;;;;;;;24.90;23.60;;;;;;5112113;28;20327;-74
2023/09/11 08:54:14;;;;;;;;;;;25.10;1.00;;;;;;5112393;27;19927;-74
2023/09/11 08:56:40;;;;;;;;;;;25.10;99.90;;;;;;5113272;28;19927;-74
2023/09/11 08:59:06;;;;;;;;;;;25.20;99.90;;;;;;5096033;28;19928;-73
2023/09/11 09:01:32;;;;;;;;;;;25.40;99.90;;;;;;5113730;27;19928;-74
2023/09/11 09:03:58;;;;;;;;;;;25.50;46.90;;;;;;5095682;28;20325;-74
2023/09/11 09:06:24;;;;;;;;;;;25.60;1.00;;;;;;5116624;27;19924;-74
2023/09/11 09:08:50;;;;;;;;;;;25.70;1.00;;;;;;5094603;28;20007;-74
2023/09/11 09:11:16;;;;;;;;;;;25.90;1.00;;;;;;5113461;27;19923;-74
2023/09/11 09:13:43;;;;;;;;;;;26.00;1.00;;;;;;5113178;28;19947;-74
2023/09/11 09:16:08;;;;;;;;;;;26.30;1.00;;;;;;5113450;27;20380;-74
2023/09/11 09:18:34;;;;;;;;;;;26.90;1.00;;;;;;5116334;27;19953;-74
2023/09/11 09:21:00;;;;;;;;;;;27.80;1.00;;;;;;5116234;27;19970;-73
2023/09/11 09:23:32;;;;;;;;;;;28.70;1.00;;;;;;5116393;27;19924;-74
2023/09/11 09:26:05;;;;;;;;;;;29.50;99.90;;;;;;5105820;28;19928;-74
2023/09/11 09:28:32;;;;;;;;;;;30.10;99.90;;;;;;5109645;28;19924;-74
2023/09/11 09:30:58;;;;;;;;;;;30.70;76.50;;;;;;5113314;27;19928;-74
2023/09/11 09:33:24;;;;;;;;;;;31.30;1.00;;;;;;5120356;27;20310;-74
2023/09/11 09:35:49;;;;;;;;;;;31.80;99.90;;;;;;5117710;27;20003;-74
2023/09/11 09:38:19;;;;;;;10.77;5.28;;;32.20;99.90;;;;;;5120394;27;20449;-74
2023/09/11 09:40:45;;;;;;;11.15;5.15;;;32.50;99.90;;;;;;5116775;27;20043;-74
2023/09/11 09:43:20;;;;;;;11.27;4.70;;;32.90;99.90;;;;;;5112878;27;20816;-73
2023/09/11 09:45:45;;;;;;;;;;;33.10;99.90;;;;;;5116120;27;20054;-74
2023/09/11 09:48:18;;;;;;;;;;;33.30;99.90;;;;;;5111667;28;19919;-74
2023/09/11 09:50:57;;;;;;;;;;;33.50;99.90;;;;;;5115814;27;20004;-73
2023/09/11 09:53:24;;;;;;;;;;;33.60;99.90;;;;;;5115344;27;19920;-74
2023/09/11 09:55:50;;;;;;;11.82;4.97;;;33.70;99.90;;;;;;5120279;27;19926;-73
2023/09/11 09:58:20;;;;;;;12.38;5.10;;;33.80;99.90;;;;;;5110044;28;20424;-74
2023/09/11 10:00:45;;;;;;;15.50;5.32;;;33.90;99.90;;;;;;5118128;27;20446;-74
2023/09/11 10:03:11;;;;;;;14.52;5.22;;;34.10;99.90;;;;;;5115695;27;20129;-74
2023/09/11 10:05:40;;;;;;;;;;;34.40;99.90;;;;;;5096524;27;20031;-74
2023/09/11 10:08:06;;;;;;;12.95;4.60;;;34.60;99.90;;;;;;5111725;27;20309;-71
2023/09/11 10:10:32;;;;;;;12.63;4.53;;;34.80;99.90;;;;;;5114704;27;20036;-71
2023/09/11 10:13:03;;;;;;;16.70;5.38;;;35.00;99.90;;;;;;5114617;27;20413;-73
2023/09/11 10:15:30;;;;;;;13.48;4.90;;;35.20;99.90;;;;;;5111035;28;20043;-74
2023/09/11 10:17:56;;;;;;;13.00;4.90;;;35.40;99.90;;;;;;5110863;28;20468;-74
2023/09/11 10:20:23;;;;;;;12.27;4.50;;;35.50;99.90;;;;;;5110075;27;20488;-74
2023/09/11 10:22:52;;;;;;;11.38;4.57;;;35.60;99.90;;;;;;5110349;27;20397;-75
2023/09/11 10:25:19;;;;;;;11.50;4.45;;;35.70;99.90;;;;;;5107822;28;20423;-75
2023/09/11 10:27:48;;;;;;;11.57;4.60;;;35.70;99.90;;;;;;5107954;27;21117;-75
2023/09/11 10:30:21;;;;;;;10.63;4.13;;;35.60;99.90;;;;;;5110687;27;20435;-74
2023/09/11 10:32:57;;;;;;;11.53;4.90;;;35.50;99.90;;;;;;5110479;27;20405;-74
2023/09/11 10:35:25;;;;;;;10.82;4.78;;;35.50;99.90;;;;;;5109298;27;20770;-74
2023/09/11 10:37:56;;;;;;;9.05;4.70;;;35.70;99.90;;;;;;5104044;28;20424;-75
2023/09/11 10:40:30;;;;;;;11.00;4.57;;;35.90;99.90;;;;;;5112865;27;20885;-74
2023/09/11 10:42:55;;;;;;;10.73;5.18;;;36.00;99.90;;;;;;5114642;27;20916;-74
2023/09/11 10:45:34;;;;;;;;;;;36.20;99.90;;;;;;5112899;27;20035;-74
2023/09/11 10:48:01;;;;;;;;;;;36.20;99.90;;;;;;5110597;27;19930;-74
2023/09/11 10:50:32;;;;;;;;;;;36.10;99.90;;;;;;5091825;28;19931;-74
2023/09/11 10:52:57;;;;;;;;;;;36.30;99.90;;;;;;5095040;28;19919;-75
2023/09/11 10:55:23;;;;;;;;;;;36.50;99.90;;;;;;5111209;27;19927;-75
2023/09/11 10:57:50;;;;;;;;;;;36.50;99.90;;;;;;5100942;27;19930;-75
2023/09/11 11:00:16;;;;;;;;;;;36.50;99.90;;;;;;5116942;27;20270;-75
2023/09/11 11:02:42;;;;;;;;;;;36.40;99.90;;;;;;5116486;27;20025;-75
2023/09/11 11:05:13;;;;;;;;;;;36.50;99.90;;;;;;5111405;27;20334;-75
2023/09/11 11:07:38;;;;;;;8.32;4.40;;;36.60;99.90;;;;;;5110698;28;19955;-75
2023/09/11 11:10:05;;;;;;;9.63;4.93;;;36.70;99.90;;;;;;5109217;27;20496;-72
2023/09/11 11:12:33;;;;;;;10.70;4.60;;;36.80;99.90;;;;;;5109657;27;20409;-73
2023/09/11 11:15:18;;;;;;;9.83;4.70;;;36.80;99.90;;;;;;5089352;28;20493;-74
2023/09/11 11:17:43;;;;;;;11.07;5.47;;;36.80;99.90;;;;;;5100745;27;20408;-74
2023/09/11 11:20:09;;;;;;;13.23;4.77;;;36.90;99.90;;;;;;5108885;28;20917;-74
2023/09/11 11:22:40;;;;;;;11.00;5.00;;;36.90;99.90;;;;;;5109082;27;20909;-75
2023/09/11 11:25:10;;;;;;;8.83;5.10;;;37.10;99.90;;;;;;5108653;28;20484;-74
2023/09/11 11:27:38;;;;;;;13.07;5.03;;;37.30;99.90;;;;;;5090674;28;20408;-75
2023/09/11 11:30:05;;;;;;;9.10;5.40;;;37.40;99.90;;;;;;5109354;27;20479;-74
2023/09/11 11:32:34;;;;;;;9.57;5.20;;;37.50;99.90;;;;;;5075866;28;20078;-75
2023/09/11 11:35:04;;;;;;;10.77;5.15;;;37.40;99.90;;;;;;5104386;28;20532;-74
2023/09/11 11:37:34;;;;;;;8.50;4.70;;;37.20;99.90;;;;;;5109182;27;20479;-74
2023/09/11 11:40:00;;;;;;;;;;;37.40;99.90;;;;;;5110667;27;20288;-74
2023/09/11 11:42:26;;;;;;;9.27;5.40;;;37.60;99.90;;;;;;5091529;28;19919;-75
2023/09/11 11:44:53;;;;;;;9.68;5.47;;;37.90;99.90;;;;;;5108253;27;20404;-75
2023/09/11 11:47:20;;;;;;;11.40;4.93;;;37.90;99.90;;;;;;5109641;28;20071;-74
2023/09/11 11:49:47;;;;;;;8.68;4.82;;;38.00;99.90;;;;;;5110313;28;20067;-74
2023/09/11 11:52:12;;;;;;;9.05;4.53;;;38.00;99.90;;;;;;5112191;27;20108;-74
2023/09/11 11:54:38;;;;;;;9.40;4.80;;;38.20;99.90;;;;;;5111749;27;21211;-74
2023/09/11 11:57:05;;;;;;;11.50;4.77;;;38.20;99.90;;;;;;5108210;28;20404;-75
2023/09/11 11:59:32;;;;;;;11.80;4.83;;;38.20;99.90;;;;;;5108726;28;20914;-75
2023/09/11 12:01:57;;;;;;;;;;;38.30;99.90;;;;;;5110340;28;20154;-75
2023/09/11 12:04:24;;;;;;;;;;;38.50;99.90;;;;;;5110008;27;20387;-75
2023/09/11 12:06:54;;;;;;;;;;;38.50;99.90;;;;;;5111299;28;20401;-75
2023/09/11 12:09:20;;;;;;;;;;;38.60;99.90;;;;;;5114723;27;20369;-75
2023/09/11 12:11:47;;;;;;;11.88;4.50;;;38.60;99.90;;;;;;5112650;27;19924;-74
2023/09/11 12:14:13;;;;;;;;;;;38.70;99.90;;;;;;5110333;28;20055;-75
2023/09/11 12:16:39;;;;;;;;;;;38.70;99.90;;;;;;5109945;28;19927;-74
2023/09/11 12:19:05;;;;;;;;;;;38.70;99.90;;;;;;5109754;28;19927;-74
2023/09/11 12:21:31;;;;;;;;;;;38.50;99.90;;;;;;5112558;28;19920;-74
2023/09/11 12:23:59;;;;;;;12.20;6.20;;;38.40;99.90;;;;;;5074669;28;19919;-74
2023/09/11 12:26:26;;;;;;;;;;;38.30;99.90;;;;;;5112079;28;21062;-74
2023/09/11 12:28:52;;;;;;;;;;;38.30;99.90;;;;;;5113588;28;20407;-75
2023/09/11 12:31:19;;;;;;;;;;;38.20;99.90;;;;;;5114499;27;19927;-75
2023/09/11 12:33:51;;;;;;;;;;;38.30;99.90;;;;;;5114209;28;20343;-75
2023/09/11 12:36:20;;;;;;;;;;;38.30;98.80;;;;;;5117358;27;19919;-75
2023/09/11 12:38:45;;;;;;;;;;;38.20;98.30;;;;;;5095762;28;19923;-75
2023/09/11 12:41:11;;;;;;;;;;;38.20;97.90;;;;;;5118410;27;19919;-74
2023/09/11 12:43:37;;;;;;;;;;;38.20;97.60;;;;;;5113658;27;20006;-74
2023/09/11 12:46:03;;;;;;;;;;;38.20;97.30;;;;;;5109631;27;20015;-74
2023/09/11 12:48:29;;;;;;;;;;;38.30;99.90;;;;;;5096545;28;19942;-74
2023/09/11 12:50:55;;;;;;;;;;;38.30;99.90;;;;;;5114039;28;19923;-75
2023/09/11 12:53:21;;;;;;;;;;;38.30;96.10;;;;;;5113401;27;19927;-75
2023/09/11 12:55:47;;;;;;;;;;;38.10;95.60;;;;;;5114735;27;19919;-74
2023/09/11 12:58:13;;;;;;;;;;;38.10;95.80;;;;;;5114233;27;20516;-74
2023/09/11 13:00:43;;;;;;;;;;;38.30;95.70;;;;;;5095510;28;19923;-75
2023/09/11 13:03:10;;;;;;;;;;;38.40;95.50;;;;;;5113920;27;20309;-74
2023/09/11 13:05:37;;;;;;;;;;;38.20;94.60;;;;;;5116668;27;19919;-75
2023/09/11 13:08:02;;;;;;;;;;;38.30;94.60;;;;;;5113036;28;20412;-74
2023/09/11 13:10:28;;;;;;;5.85;4.18;;;38.20;93.90;;;;;;5112637;28;19966;-75
2023/09/11 13:12:55;;;;;;;11.23;5.32;;;38.30;94.30;;;;;;5115059;27;20487;-75
2023/09/11 13:15:22;;;;;;;9.43;5.43;;;38.40;94.10;;;;;;5114797;27;20400;-75
2023/09/11 13:17:47;;;;;;;8.68;4.82;;;38.40;93.90;;;;;;5111095;27;20940;-75
2023/09/11 13:20:13;;;;;;;7.82;3.63;;;38.40;99.90;;;;;;5113672;27;20811;-75
2023/09/11 13:22:41;;;;;;;5.95;3.30;;;38.50;93.40;;;;;;5113648;27;20407;-75
2023/09/11 13:25:07;;;;;;;7.00;3.15;;;38.50;93.10;;;;;;5116337;27;20407;-75
2023/09/11 13:27:33;;;;;;;8.98;3.40;;;38.60;93.00;;;;;;5112852;27;20484;-75
2023/09/11 13:29:58;;;;;;;4.63;3.03;;;38.80;92.80;;;;;;5096148;27;20816;-75
2023/09/11 13:32:24;;;;;;;10.07;3.33;;;38.80;92.10;;;;;;5111326;28;20479;-73
2023/09/11 13:34:49;;;;;;;7.63;3.60;;;38.70;91.90;;;;;;5119046;27;20403;-74
2023/09/11 13:37:16;;;;;;;7.20;4.00;;;38.70;91.50;;;;;;5114142;27;20415;-75
2023/09/11 13:39:41;;;;;;;7.63;3.78;;;38.70;91.70;;;;;;5114641;27;20432;-74
2023/09/11 13:42:07;;;;;;;;;;;38.60;91.10;;;;;;5117913;27;20047;-77
2023/09/11 13:44:33;;;;;;;;;;;38.60;91.00;;;;;;5115908;27;20793;-75
2023/09/11 13:46:59;;;;;;;;;;;38.70;91.30;;;;;;5115439;27;20513;-76
2023/09/11 13:49:24;;;;;;;;;;;38.70;90.50;;;;;;5117799;27;19919;-76
2023/09/11 13:51:52;;;;;;;;;;;38.30;89.70;;;;;;5111544;28;21373;-76
2023/09/11 13:54:18;;;;;;;;;;;37.90;87.30;;;;;;5110920;27;19931;-75
2023/09/11 13:56:43;;;;;;;;;;;37.40;87.30;;;;;;5107911;27;19934;-76
2023/09/11 13:59:09;;;;;;;;;;;37.00;86.70;;;;;;5109727;27;19920;-76